Time;durP1;ratioP1;P1;durP2;ratioP2;P2;SDS_P1;SDS_P2;PMS_P1;PMS_P2;Temp;Humidity;BMP_temperature;BMP_pressure;BME280_temperature;BME280_humidity;BME280_pressure;Samples;Min_cycle;Max_cycle;Signal;HPM_P1;HPM_P2
2023/04/25 00:01:13;;;;;;;24.30;4.68;;;7.50;99.90;;;;;;5036553;28;20420;-71
2023/04/25 00:03:39;;;;;;;26.98;4.80;;;7.50;99.90;;;;;;5038360;28;20052;-71
2023/04/25 00:06:06;;;;;;;24.63;4.53;;;7.50;99.90;;;;;;5038260;28;20075;-72
2023/04/25 00:08:32;;;;;;;21.33;4.53;;;7.40;99.90;;;;;;5038482;28;20036;-71
2023/04/25 00:10:58;;;;;;;24.63;4.63;;;7.40;99.90;;;;;;5038187;28;20037;-71
2023/04/25 00:13:25;;;;;;;27.88;5.13;;;7.30;99.90;;;;;;5038518;28;20041;-71
2023/04/25 00:15:51;;;;;;;26.00;5.30;;;7.30;99.90;;;;;;5038152;28;20041;-71
2023/04/25 00:18:17;;;;;;;23.25;4.28;;;7.20;99.90;;;;;;5021623;28;20040;-71
2023/04/25 00:20:46;;;;;;;24.35;4.63;;;7.30;99.90;;;;;;5038089;28;20041;-71
2023/04/25 00:23:17;;;;;;;30.33;5.32;;;7.30;99.90;;;;;;5038058;28;20076;-71
2023/04/25 00:25:46;;;;;;;23.65;4.53;;;7.30;99.90;;;;;;5038003;28;20086;-71
2023/04/25 00:28:12;;;;;;;20.52;4.60;;;7.20;99.90;;;;;;5037885;28;20049;-71
2023/04/25 00:30:39;;;;;;;23.50;4.85;;;7.20;99.90;;;;;;5037874;28;20041;-71
2023/04/25 00:33:04;;;;;;;17.60;4.20;;;7.20;99.90;;;;;;5021438;28;20076;-71
2023/04/25 00:35:30;;;;;;;22.17;4.47;;;7.20;99.90;;;;;;5038028;28;20079;-71
2023/04/25 00:37:55;;;;;;;20.92;4.57;;;7.20;99.90;;;;;;5021217;28;20516;-71
2023/04/25 00:40:21;;;;;;;19.95;4.40;;;7.20;99.90;;;;;;5037658;28;20128;-71
2023/04/25 00:42:47;;;;;;;17.75;3.88;;;7.10;99.90;;;;;;5021485;28;20044;-71
2023/04/25 00:45:15;;;;;;;18.55;3.88;;;7.10;99.90;;;;;;5021165;28;20041;-71
2023/04/25 00:47:41;;;;;;;15.10;3.70;;;7.10;99.90;;;;;;5037467;28;20475;-71
2023/04/25 00:50:08;;;;;;;14.60;3.85;;;7.10;99.90;;;;;;5037527;28;20091;-71
2023/04/25 00:52:34;;;;;;;18.50;3.30;;;7.00;99.90;;;;;;5037483;28;20123;-71
2023/04/25 00:55:00;;;;;;;20.90;4.18;;;7.10;99.90;;;;;;5037469;28;20507;-71
2023/04/25 00:57:26;;;;;;;18.48;4.07;;;7.10;99.90;;;;;;5037588;28;20507;-71
2023/04/25 00:59:54;;;;;;;15.13;3.63;;;7.00;99.90;;;;;;5037378;28;20501;-71
2023/04/25 01:02:20;;;;;;;17.50;3.85;;;7.00;99.90;;;;;;5037564;28;20045;-71
2023/04/25 01:04:47;;;;;;;19.50;3.53;;;7.00;99.90;;;;;;5020952;28;20055;-71
2023/04/25 01:07:13;;;;;;;22.73;4.45;;;7.00;99.90;;;;;;5037420;28;20060;-71
2023/04/25 01:09:39;;;;;;;21.35;4.38;;;7.00;99.90;;;;;;5037104;28;20045;-71
2023/04/25 01:12:04;;;;;;;17.48;4.68;;;7.00;99.90;;;;;;5036896;28;20052;-71
2023/04/25 01:14:31;;;;;;;18.98;3.60;;;6.90;99.90;;;;;;5037119;28;20112;-71
2023/04/25 01:16:57;;;;;;;20.75;4.25;;;6.90;99.90;;;;;;5037247;28;20033;-71
2023/04/25 01:19:23;;;;;;;19.00;4.30;;;6.80;99.90;;;;;;5020504;28;20516;-71
2023/04/25 01:21:49;;;;;;;23.55;4.07;;;6.80;99.90;;;;;;5037228;28;20135;-71
2023/04/25 01:24:15;;;;;;;18.42;3.95;;;6.80;99.90;;;;;;5020404;28;20040;-71
2023/04/25 01:26:49;;;;;;;28.42;4.53;;;6.80;99.90;;;;;;5037284;28;20037;-71
2023/04/25 01:29:19;;;;;;;22.48;4.20;;;6.80;99.90;;;;;;5037040;28;20063;-71
2023/04/25 01:31:45;;;;;;;20.50;4.03;;;6.70;99.90;;;;;;5036688;28;20044;-71
2023/04/25 01:34:12;;;;;;;19.83;3.85;;;6.70;99.90;;;;;;5020202;28;20037;-71
2023/04/25 01:36:37;;;;;;;16.77;3.88;;;6.70;99.90;;;;;;5036928;28;20099;-71
2023/04/25 01:39:03;;;;;;;15.98;3.45;;;6.70;99.90;;;;;;5036848;28;20436;-71
2023/04/25 01:41:29;;;;;;;20.70;3.53;;;6.70;99.90;;;;;;5036611;28;20435;-71
2023/04/25 01:43:55;;;;;;;20.13;4.60;;;6.80;99.90;;;;;;5036548;28;20037;-71
2023/04/25 01:46:20;;;;;;;16.63;4.15;;;6.70;99.90;;;;;;5036404;28;20072;-71
2023/04/25 01:48:46;;;;;;;23.17;3.88;;;6.70;99.90;;;;;;5036387;28;20167;-71
2023/04/25 01:51:12;;;;;;;17.75;3.78;;;6.80;99.90;;;;;;5036289;28;20033;-71
2023/04/25 01:53:39;;;;;;;19.95;4.38;;;6.80;99.90;;;;;;5019797;28;20040;-71
2023/04/25 01:56:05;;;;;;;20.08;4.40;;;6.80;99.90;;;;;;5019727;28;20029;-71
2023/04/25 01:58:30;;;;;;;19.13;4.78;;;6.80;99.90;;;;;;5036246;28;20110;-71
2023/04/25 02:00:56;;;;;;;22.88;4.00;;;6.80;99.90;;;;;;5036487;28;20090;-71
2023/04/25 02:03:22;;;;;;;21.35;3.85;;;6.80;99.90;;;;;;5036144;28;20438;-71
2023/04/25 02:05:47;;;;;;;20.52;3.90;;;6.80;99.90;;;;;;5036128;28;20127;-71
2023/04/25 02:08:13;;;;;;;19.65;4.05;;;6.80;99.90;;;;;;5036268;28;20102;-71
2023/04/25 02:10:39;;;;;;;23.60;3.70;;;6.80;99.90;;;;;;5035971;28;20461;-71
2023/04/25 02:13:05;;;;;;;20.23;3.42;;;6.80;99.90;;;;;;5036261;28;20041;-71
2023/04/25 02:15:30;;;;;;;28.10;4.03;;;6.80;99.90;;;;;;5035916;28;20490;-71
2023/04/25 02:17:57;;;;;;;24.90;4.10;;;6.80;99.90;;;;;;5035767;28;20068;-71
2023/04/25 02:20:24;;;;;;;21.05;4.18;;;6.80;99.90;;;;;;5035829;28;20083;-71
2023/04/25 02:22:50;;;;;;;16.75;3.53;;;6.80;99.90;;;;;;5035399;28;20056;-71
2023/04/25 02:25:17;;;;;;;16.92;4.10;;;6.80;99.90;;;;;;5019153;28;20060;-71
2023/04/25 02:27:43;;;;;;;19.98;3.20;;;6.80;99.90;;;;;;5035627;28;20044;-71
2023/04/25 02:30:09;;;;;;;16.90;3.75;;;6.80;99.90;;;;;;5035574;28;20048;-71
2023/04/25 02:32:34;;;;;;;21.85;4.00;;;6.80;99.90;;;;;;5035872;28;20114;-71
2023/04/25 02:35:03;;;;;;;19.52;3.33;;;6.80;99.90;;;;;;5035588;28;20409;-71
2023/04/25 02:37:33;;;;;;;19.02;4.00;;;6.80;99.90;;;;;;5018985;28;20079;-71
2023/04/25 02:39:59;;;;;;;18.38;3.35;;;6.80;99.90;;;;;;5035814;28;20455;-71
2023/04/25 02:42:25;;;;;;;14.07;3.85;;;6.70;99.90;;;;;;5035461;28;20033;-71
2023/04/25 02:44:51;;;;;;;20.27;3.90;;;6.70;99.90;;;;;;5035762;28;20132;-71
2023/04/25 02:47:16;;;;;;;21.80;3.70;;;6.70;99.90;;;;;;5035258;28;20467;-71
2023/04/25 02:49:42;;;;;;;18.95;3.67;;;6.70;99.90;;;;;;5035365;28;20029;-71
2023/04/25 02:52:08;;;;;;;17.58;3.03;;;6.70;99.90;;;;;;5035620;28;20083;-71
2023/04/25 02:54:34;;;;;;;19.27;3.20;;;6.70;99.90;;;;;;5035303;28;20037;-71
2023/04/25 02:57:00;;;;;;;17.20;3.30;;;6.60;99.90;;;;;;5035419;28;20394;-71
2023/04/25 02:59:26;;;;;;;20.52;3.13;;;6.60;99.90;;;;;;5035280;28;20404;-71
2023/04/25 03:01:52;;;;;;;18.67;3.67;;;6.60;99.90;;;;;;5035234;28;20037;-71
2023/04/25 03:04:18;;;;;;;19.85;2.90;;;6.70;99.90;;;;;;5035240;28;20041;-71
2023/04/25 03:06:44;;;;;;;18.10;3.05;;;6.60;99.90;;;;;;5019477;28;20420;-71
2023/04/25 03:09:10;;;;;;;18.13;2.85;;;6.60;99.90;;;;;;5035334;28;20533;-71
2023/04/25 03:11:38;;;;;;;16.85;2.72;;;6.60;99.90;;;;;;5035373;28;20048;-71
2023/04/25 03:14:04;;;;;;;15.65;2.58;;;6.60;99.90;;;;;;5035111;28;20427;-71
2023/04/25 03:16:30;;;;;;;15.90;2.55;;;6.50;99.90;;;;;;5035131;28;20033;-71
2023/04/25 03:18:56;;;;;;;18.83;3.13;;;6.60;99.90;;;;;;5035276;28;20049;-71
2023/04/25 03:21:22;;;;;;;13.75;3.30;;;6.60;99.90;;;;;;5034997;28;20132;-71
2023/04/25 03:23:47;;;;;;;18.35;3.10;;;6.60;99.90;;;;;;5034987;28;20413;-71
2023/04/25 03:26:13;;;;;;;11.18;2.50;;;6.60;99.90;;;;;;5034947;28;20115;-71
2023/04/25 03:28:39;;;;;;;16.13;3.15;;;6.50;99.90;;;;;;5035061;28;20041;-71
2023/04/25 03:31:05;;;;;;;12.30;2.55;;;6.50;99.90;;;;;;5034965;28;20170;-71
2023/04/25 03:33:31;;;;;;;14.15;2.25;;;6.40;99.90;;;;;;5034899;28;20505;-71
2023/04/25 03:35:57;;;;;;;9.15;2.50;;;6.30;99.90;;;;;;5021702;28;20044;-71
2023/04/25 03:38:22;;;;;;;9.30;1.83;;;6.30;99.90;;;;;;5039168;28;20036;-71
2023/04/25 03:40:50;;;;;;;9.82;2.10;;;6.20;99.90;;;;;;5038840;28;20059;-71
2023/04/25 03:43:16;;;;;;;9.27;1.77;;;6.20;99.90;;;;;;5038866;28;20051;-71
2023/04/25 03:45:41;;;;;;;7.00;1.70;;;6.10;99.90;;;;;;5038641;28;20044;-71
2023/04/25 03:48:07;;;;;;;8.23;1.80;;;6.10;99.90;;;;;;5039489;28;20052;-71
2023/04/25 03:50:33;;;;;;;9.65;1.65;;;6.10;99.90;;;;;;5038603;28;20033;-71
2023/04/25 03:52:58;;;;;;;8.00;1.35;;;6.10;99.90;;;;;;5038563;28;20044;-71
2023/04/25 03:55:24;;;;;;;6.25;1.35;;;6.10;99.90;;;;;;5038851;28;20036;-71
2023/04/25 03:57:50;;;;;;;6.20;1.73;;;6.10;99.90;;;;;;5038684;28;20090;-71
2023/04/25 04:00:15;;;;;;;8.15;1.75;;;6.10;99.90;;;;;;5022032;28;20398;-71
2023/04/25 04:02:41;;;;;;;10.05;1.80;;;6.10;99.90;;;;;;5038404;28;20048;-71
2023/04/25 04:05:07;;;;;;;5.38;1.48;;;6.10;99.90;;;;;;5021904;28;20091;-71
2023/04/25 04:07:33;;;;;;;7.43;1.38;;;6.10;99.90;;;;;;5038336;28;20033;-71
2023/04/25 04:09:59;;;;;;;10.80;2.05;;;6.10;99.90;;;;;;5021791;28;20489;-71
2023/04/25 04:12:24;;;;;;;8.48;1.67;;;6.10;99.90;;;;;;5022006;28;20094;-71
2023/04/25 04:14:50;;;;;;;10.07;2.00;;;6.10;99.90;;;;;;5038166;28;20068;-71
2023/04/25 04:17:16;;;;;;;6.43;2.20;;;6.00;99.90;;;;;;5021695;28;20052;-71
2023/04/25 04:19:41;;;;;;;12.05;1.70;;;6.00;99.90;;;;;;5038151;28;20098;-71
2023/04/25 04:22:07;;;;;;;6.70;1.83;;;6.00;99.90;;;;;;5038421;28;20128;-71
2023/04/25 04:24:33;;;;;;;11.05;1.60;;;6.00;99.90;;;;;;5038292;28;20493;-71
2023/04/25 04:26:58;;;;;;;7.65;1.40;;;6.00;99.90;;;;;;5037974;28;20129;-71
2023/04/25 04:29:24;;;;;;;8.90;1.63;;;6.00;99.90;;;;;;5037926;28;20037;-71
2023/04/25 04:31:52;;;;;;;9.38;2.30;;;6.00;99.90;;;;;;5021445;28;20055;-71
2023/04/25 04:34:18;;;;;;;8.85;1.65;;;6.00;99.90;;;;;;5038154;28;20040;-71
2023/04/25 04:36:47;;;;;;;8.48;1.58;;;6.00;99.90;;;;;;5037769;28;20497;-71
2023/04/25 04:39:13;;;;;;;10.40;1.75;;;6.00;99.90;;;;;;5037949;28;20084;-72
2023/04/25 04:41:39;;;;;;;8.32;1.92;;;6.00;99.90;;;;;;5021437;28;20033;-71
2023/04/25 04:44:06;;;;;;;6.88;1.52;;;5.90;99.90;;;;;;5037701;28;20559;-71
2023/04/25 04:46:37;;;;;;;8.85;1.80;;;5.90;99.90;;;;;;5036877;28;20037;-71
2023/04/25 04:49:04;;;;;;;10.13;1.88;;;5.90;99.90;;;;;;5037622;28;20489;-71
2023/04/25 04:51:31;;;;;;;8.13;1.48;;;6.00;99.90;;;;;;5020879;28;20119;-71
2023/04/25 04:53:58;;;;;;;7.65;1.40;;;6.00;99.90;;;;;;5037558;28;20045;-71
2023/04/25 04:56:25;;;;;;;9.38;1.92;;;6.00;99.90;;;;;;5021009;28;20513;-71
2023/04/25 04:58:52;;;;;;;6.22;1.38;;;6.10;99.90;;;;;;5020927;28;20036;-71
2023/04/25 05:01:18;;;;;;;9.38;1.88;;;6.00;99.90;;;;;;5037349;28;20044;-71
2023/04/25 05:03:43;;;;;;;12.55;1.98;;;6.00;99.90;;;;;;5037338;28;20033;-71
2023/04/25 05:06:09;;;;;;;13.13;2.05;;;6.00;99.90;;;;;;5037242;28;20049;-71
2023/04/25 05:08:35;;;;;;;10.27;2.00;;;6.00;99.90;;;;;;5037479;28;20072;-71
2023/04/25 05:11:01;;;;;;;9.07;2.20;;;6.00;99.90;;;;;;5037116;28;20550;-71
2023/04/25 05:13:26;;;;;;;8.82;2.10;;;6.00;99.90;;;;;;5020845;28;20083;-71
2023/04/25 05:15:52;;;;;;;9.80;2.15;;;6.00;99.90;;;;;;5037136;28;20576;-71
2023/04/25 05:18:17;;;;;;;8.93;2.30;;;5.90;99.90;;;;;;5037284;28;20048;-71
2023/04/25 05:20:43;;;;;;;9.20;2.83;;;6.00;99.90;;;;;;5037040;28;20033;-71
2023/04/25 05:23:08;;;;;;;11.98;1.80;;;5.90;99.90;;;;;;5037335;28;20086;-71
2023/04/25 05:25:34;;;;;;;10.68;2.58;;;6.00;99.90;;;;;;5036912;28;20037;-71
2023/04/25 05:28:00;;;;;;;12.98;2.47;;;6.00;99.90;;;;;;5036790;28;20052;-71
2023/04/25 05:30:25;;;;;;;9.43;2.08;;;6.00;99.90;;;;;;5020394;28;20186;-71
2023/04/25 05:32:51;;;;;;;10.20;1.92;;;6.00;99.90;;;;;;5036747;28;20048;-71
2023/04/25 05:35:17;;;;;;;10.32;2.63;;;6.10;99.90;;;;;;5037009;28;20037;-71
2023/04/25 05:37:42;;;;;;;14.55;2.72;;;6.20;99.90;;;;;;5036583;28;20386;-71
2023/04/25 05:40:08;;;;;;;12.85;3.03;;;6.20;99.90;;;;;;5036683;28;20125;-71
2023/04/25 05:42:34;;;;;;;11.60;2.45;;;6.30;99.90;;;;;;5036597;28;20044;-71
2023/04/25 05:45:00;;;;;;;9.70;1.48;;;6.40;99.90;;;;;;5036550;28;20091;-71
2023/04/25 05:47:26;;;;;;;12.73;2.15;;;6.40;99.90;;;;;;5036295;28;20094;-71
2023/04/25 05:49:52;;;;;;;11.70;2.30;;;6.50;99.90;;;;;;5036604;28;20033;-71
2023/04/25 05:52:18;;;;;;;11.27;2.45;;;6.50;99.90;;;;;;5036344;28;20049;-71
2023/04/25 05:54:44;;;;;;;11.23;1.98;;;6.50;99.90;;;;;;5036568;28;20052;-71
2023/04/25 05:57:27;;;;;;;14.75;2.15;;;6.60;99.90;;;;;;5036500;28;20480;-71
2023/04/25 05:59:53;;;;;;;14.38;2.42;;;6.60;99.90;;;;;;5036322;28;20047;-71
2023/04/25 06:02:21;;;;;;;12.43;2.20;;;6.60;99.90;;;;;;5036137;28;20041;-71
2023/04/25 06:04:47;;;;;;;12.70;2.00;;;6.60;99.90;;;;;;5036377;28;20093;-71
2023/04/25 06:07:12;;;;;;;10.98;2.10;;;6.60;99.90;;;;;;5035961;28;20417;-71
2023/04/25 06:09:39;;;;;;;13.10;2.25;;;6.60;99.90;;;;;;5036256;28;20036;-71
2023/04/25 06:12:05;;;;;;;13.50;2.60;;;6.70;99.90;;;;;;5036303;28;20048;-71
2023/04/25 06:14:31;;;;;;;14.27;2.40;;;6.70;99.90;;;;;;5035980;28;20470;-71
2023/04/25 06:16:57;;;;;;;17.20;2.42;;;6.70;99.90;;;;;;5036276;28;20079;-71
2023/04/25 06:19:22;;;;;;;11.55;1.90;;;6.80;99.90;;;;;;5036102;28;20405;-71
2023/04/25 06:21:48;;;;;;;12.00;2.55;;;6.90;99.90;;;;;;5035856;28;20413;-71
2023/04/25 06:24:13;;;;;;;16.98;2.70;;;6.90;99.90;;;;;;5036112;28;20033;-71
2023/04/25 06:26:39;;;;;;;13.85;2.50;;;6.90;99.90;;;;;;5035737;28;20455;-71
2023/04/25 06:29:05;;;;;;;14.52;2.38;;;6.90;99.90;;;;;;5036083;28;20032;-71
2023/04/25 06:31:32;;;;;;;11.88;2.60;;;6.90;99.90;;;;;;5035652;28;20529;-71
2023/04/25 06:33:58;;;;;;;11.77;2.72;;;7.00;99.90;;;;;;5019410;28;20167;-71
2023/04/25 06:36:25;;;;;;;14.13;2.30;;;7.00;99.90;;;;;;5035839;28;20120;-71
2023/04/25 06:38:52;;;;;;;14.05;2.25;;;7.00;99.90;;;;;;5035597;28;20043;-71
2023/04/25 06:41:18;;;;;;;15.90;2.22;;;7.10;99.90;;;;;;5035891;28;20040;-71
2023/04/25 06:43:44;;;;;;;11.88;2.80;;;7.10;99.90;;;;;;5035796;28;20493;-71
2023/04/25 06:46:10;;;;;;;13.98;1.95;;;7.20;99.90;;;;;;5035280;28;20052;-71
2023/04/25 06:48:35;;;;;;;7.00;1.80;;;7.20;99.90;;;;;;5035482;28;20037;-71
2023/04/25 06:51:01;;;;;;;9.77;2.00;;;7.20;99.90;;;;;;5035386;28;20044;-71
2023/04/25 06:53:27;;;;;;;12.88;2.17;;;7.20;99.90;;;;;;5035441;28;20045;-71
2023/04/25 06:55:52;;;;;;;14.32;2.30;;;7.20;99.90;;;;;;5035441;28;20055;-71
2023/04/25 06:58:18;;;;;;;12.35;1.98;;;7.20;99.90;;;;;;5035391;28;20037;-71
2023/04/25 07:00:44;;;;;;;15.13;1.83;;;7.10;99.90;;;;;;5035637;28;20083;-71
2023/04/25 07:03:10;;;;;;;15.35;2.60;;;7.20;99.90;;;;;;5018775;28;20417;-71
2023/04/25 07:05:35;;;;;;;10.98;1.73;;;7.20;99.90;;;;;;5035216;28;20076;-71
2023/04/25 07:08:01;;;;;;;9.23;1.63;;;7.30;99.90;;;;;;5035389;28;20044;-71
2023/04/25 07:10:27;;;;;;;8.15;1.80;;;7.50;99.90;;;;;;5034784;28;20035;-71
2023/04/25 07:12:53;;;;;;;12.90;1.80;;;7.60;99.90;;;;;;5019077;28;20455;-71
2023/04/25 07:15:18;;;;;;;8.15;1.67;;;7.70;99.90;;;;;;5035159;28;20527;-71
2023/04/25 07:17:44;;;;;;;13.40;2.08;;;7.80;99.90;;;;;;5035117;28;20040;-71
2023/04/25 07:20:11;;;;;;;11.88;1.90;;;7.90;99.90;;;;;;5035166;28;20174;-71
2023/04/25 07:22:36;;;;;;;11.63;2.10;;;7.90;99.90;;;;;;5018781;28;20068;-71
2023/04/25 07:25:03;;;;;;;9.32;1.60;;;7.90;99.90;;;;;;5035312;28;20126;-71
2023/04/25 07:27:29;;;;;;;9.35;1.52;;;7.90;99.90;;;;;;5034988;28;20048;-71
2023/04/25 07:29:55;;;;;;;8.98;1.63;;;7.90;99.90;;;;;;5034886;28;20048;-71
2023/04/25 07:32:21;;;;;;;8.05;1.80;;;7.90;99.90;;;;;;5034969;28;20041;-71
2023/04/25 07:34:46;;;;;;;10.68;1.67;;;7.90;99.90;;;;;;5035236;28;20135;-71
2023/04/25 07:37:12;;;;;;;9.52;1.55;;;7.90;99.90;;;;;;5034899;28;20033;-71
2023/04/25 07:39:38;;;;;;;14.70;1.90;;;7.90;99.90;;;;;;5052789;28;20094;-71
2023/04/25 07:42:03;;;;;;;9.50;1.50;;;7.80;99.90;;;;;;5034944;28;20040;-71
2023/04/25 07:44:30;;;;;;;9.57;1.58;;;7.90;99.90;;;;;;5034755;28;20037;-71
2023/04/25 07:46:56;;;;;;;8.73;1.70;;;8.00;99.90;;;;;;5034575;28;20044;-71
2023/04/25 07:49:22;;;;;;;11.05;2.17;;;8.10;99.90;;;;;;5034960;28;20044;-71
2023/04/25 07:51:47;;;;;;;7.28;2.03;;;8.20;99.90;;;;;;5019125;28;20406;-71
2023/04/25 07:54:15;;;;;;;13.13;1.75;;;8.40;99.90;;;;;;5034848;28;20041;-71
2023/04/25 07:56:41;;;;;;;6.72;1.52;;;8.60;99.90;;;;;;5034753;28;20041;-71
2023/04/25 07:59:06;;;;;;;6.72;1.60;;;8.70;99.90;;;;;;5034749;28;20045;-71
2023/04/25 08:01:33;;;;;;;10.18;1.90;;;8.60;99.90;;;;;;5034729;28;20037;-71
2023/04/25 08:03:59;;;;;;;11.52;1.80;;;8.40;99.90;;;;;;5018272;28;20045;-71
2023/04/25 08:06:25;;;;;;;6.07;1.60;;;8.10;99.90;;;;;;5034635;28;20045;-71
2023/04/25 08:08:51;;;;;;;7.75;1.50;;;7.80;99.90;;;;;;5034555;28;20060;-71
2023/04/25 08:11:16;;;;;;;9.95;1.60;;;7.60;99.90;;;;;;5034549;28;20041;-70
2023/04/25 08:13:42;;;;;;;7.57;1.45;;;7.50;99.90;;;;;;5018475;28;20128;-70
2023/04/25 08:16:07;;;;;;;10.88;1.98;;;7.50;99.90;;;;;;5018484;28;20036;-70
2023/04/25 08:18:33;;;;;;;11.38;1.88;;;7.70;99.90;;;;;;5034715;28;20095;-70
2023/04/25 08:20:59;;;;;;;8.23;1.80;;;7.90;99.90;;;;;;5034429;28;20486;-70
2023/04/25 08:23:25;;;;;;;8.80;1.83;;;8.10;99.90;;;;;;5038029;28;20039;-71
2023/04/25 08:25:50;;;;;;;7.88;1.92;;;8.40;99.90;;;;;;5021950;28;20048;-71
2023/04/25 08:28:16;;;;;;;10.48;1.58;;;8.70;99.90;;;;;;5021516;28;20080;-71
2023/04/25 08:30:42;;;;;;;7.10;1.35;;;8.70;99.90;;;;;;5021522;28;20040;-71
2023/04/25 08:33:07;;;;;;;9.93;1.48;;;8.80;99.90;;;;;;5037996;28;20037;-71
2023/04/25 08:35:33;;;;;;;6.57;1.40;;;8.90;99.90;;;;;;5037920;28;20037;-71
2023/04/25 08:38:00;;;;;;;7.25;1.20;;;9.10;99.90;;;;;;5037884;28;20044;-71
2023/04/25 08:40:29;;;;;;;7.00;1.73;;;9.20;99.90;;;;;;5038073;28;20059;-71
2023/04/25 08:42:57;;;;;;;10.10;1.50;;;9.40;99.90;;;;;;5021372;28;20123;-71
2023/04/25 08:45:23;;;;;;;6.45;1.05;;;9.50;99.90;;;;;;5037839;28;20045;-71
2023/04/25 08:47:51;;;;;;;7.32;1.38;;;9.70;99.90;;;;;;5037642;28;20049;-71
2023/04/25 08:50:19;;;;;;;7.65;1.40;;;9.80;99.90;;;;;;5037577;28;20045;-71
2023/04/25 08:52:48;;;;;;;8.52;1.45;;;9.70;99.90;;;;;;5037618;28;20052;-71
2023/04/25 08:55:15;;;;;;;9.65;1.88;;;9.70;99.90;;;;;;5037579;28;20149;-71
2023/04/25 08:57:45;;;;;;;13.00;2.58;;;9.70;99.90;;;;;;5037387;28;20037;-71
2023/04/25 09:00:12;;;;;;;8.20;1.60;;;9.80;99.90;;;;;;5038084;28;20036;-71
2023/04/25 09:02:39;;;;;;;6.32;1.70;;;9.90;99.00;;;;;;5037467;28;20080;-71
2023/04/25 09:05:09;;;;;;;7.03;1.50;;;10.20;98.80;;;;;;5037390;28;20049;-71
2023/04/25 09:07:35;;;;;;;7.13;1.65;;;10.20;98.30;;;;;;5037299;28;20037;-71
2023/04/25 09:10:03;;;;;;;5.80;0.90;;;10.10;98.20;;;;;;5037320;28;20051;-71
2023/04/25 09:12:30;;;;;;;7.72;1.20;;;9.80;98.90;;;;;;5037591;28;20063;-71
2023/04/25 09:15:10;;;;;;;9.38;1.15;;;9.50;99.90;;;;;;5037569;28;20048;-71
2023/04/25 09:17:40;;;;;;;6.38;1.25;;;9.10;99.90;;;;;;5020860;28;20037;-71
2023/04/25 09:20:13;;;;;;;5.18;1.35;;;8.80;99.90;;;;;;5020608;28;20052;-71
2023/04/25 09:23:02;;;;;;;6.15;1.33;;;8.60;99.90;;;;;;5037333;28;20151;-71
2023/04/25 09:25:35;;;;;;;6.15;1.15;;;8.50;99.90;;;;;;5037270;28;20037;-71
2023/04/25 09:28:56;;;;;;;5.50;1.50;;;8.50;99.90;;;;;;5055351;28;20063;-71
2023/04/25 09:31:25;;;;;;;3.55;0.73;;;8.50;99.90;;;;;;5036927;28;20563;-71
2023/04/25 09:34:38;;;;;;;4.22;1.13;;;8.70;99.90;;;;;;5054605;28;20086;-71
2023/04/25 09:37:25;;;;;;;4.47;1.00;;;9.00;99.90;;;;;;5054893;28;20091;-71
2023/04/25 09:41:00;;;;;;;4.85;1.13;;;9.30;99.90;;;;;;5055202;28;20044;-71
2023/04/25 09:44:22;;;;;;;8.88;1.17;;;9.80;99.90;;;;;;5039486;28;20566;-71
2023/04/25 09:53:19;;;;;;;7.70;1.20;;;10.80;99.90;;;;;;5036519;28;20052;-71
2023/04/25 09:55:46;;;;;;;9.40;1.60;;;10.90;99.90;;;;;;5036447;28;20095;-72
2023/04/25 09:58:30;;;;;;;8.30;1.27;;;10.80;99.90;;;;;;5036266;28;20559;-71
2023/04/25 10:07:40;;;;;;;5.32;1.17;;;9.30;99.90;;;;;;5036359;28;20040;-71
2023/04/25 10:10:07;;;;;;;6.88;1.45;;;8.90;99.90;;;;;;5036058;28;20083;-71
2023/04/25 10:13:10;;;;;;;5.82;1.10;;;8.80;99.90;;;;;;5036055;28;20069;-71
2023/04/25 10:16:13;;;;;;;7.22;1.65;;;9.10;99.90;;;;;;5036411;28;20048;-71
2023/04/25 10:19:16;;;;;;;8.30;1.80;;;9.40;99.90;;;;;;5036227;28;20041;-71
2023/04/25 10:22:38;;;;;;;7.68;2.42;;;10.10;99.90;;;;;;5039164;28;20052;-71
2023/04/25 10:25:41;;;;;;;7.30;1.33;;;10.60;97.60;;;;;;5019609;28;20131;-71
2023/04/25 10:28:26;;;;;;;7.47;1.35;;;11.10;97.90;;;;;;5038670;28;20157;-71
2023/04/25 10:31:17;;;;;;;12.13;1.95;;;11.40;97.00;;;;;;5035610;28;20529;-71
2023/04/25 10:34:01;;;;;;;9.55;1.90;;;11.60;96.30;;;;;;5035627;28;20446;-71
2023/04/25 10:40:08;;;;;;;8.18;1.50;;;11.90;95.30;;;;;;5035718;28;20074;-71
2023/04/25 10:52:42;;;;;;;7.82;1.23;;;11.70;91.30;;;;;;5035751;28;20053;-71
2023/04/25 10:55:26;;;;;;;7.38;1.58;;;11.60;91.30;;;;;;5035423;28;20128;-71
2023/04/25 11:03:58;;;;;;;6.07;1.33;;;11.80;91.60;;;;;;5035366;28;20048;-71
2023/04/25 11:19:23;;;;;;;9.43;1.35;;;11.00;93.30;;;;;;5053670;28;20044;-71
2023/04/25 11:21:49;;;;;;;5.27;1.03;;;11.00;92.20;;;;;;5035151;28;20091;-71
2023/04/25 11:24:17;;;;;;;6.47;1.00;;;10.90;91.50;;;;;;5035076;28;20045;-71
2023/04/25 11:26:43;;;;;;;8.05;0.88;;;10.90;91.50;;;;;;5035280;28;20044;-71
2023/04/25 11:29:09;;;;;;;4.85;0.93;;;10.80;91.40;;;;;;5034978;28;20037;-71
2023/04/25 11:31:35;;;;;;;5.13;1.30;;;10.90;91.80;;;;;;5034918;28;20041;-71
2023/04/25 11:34:00;;;;;;;5.05;0.90;;;10.90;91.70;;;;;;5034921;28;20040;-71
2023/04/25 11:36:27;;;;;;;7.30;1.27;;;10.90;91.30;;;;;;5034957;28;20041;-71
2023/04/25 11:38:53;;;;;;;7.00;1.10;;;10.90;91.30;;;;;;5034933;28;20408;-71
2023/04/25 11:41:22;;;;;;;7.57;1.15;;;10.90;91.00;;;;;;5035139;28;20075;-71
2023/04/25 11:43:49;;;;;;;6.85;1.75;;;11.10;91.00;;;;;;5034839;28;20057;-71
2023/04/25 11:46:15;;;;;;;7.72;1.40;;;11.40;90.70;;;;;;5052895;28;20045;-71
2023/04/25 11:48:42;;;;;;;9.52;1.98;;;11.60;90.20;;;;;;5034849;28;20037;-71
2023/04/25 11:51:08;;;;;;;8.00;2.50;;;11.90;90.40;;;;;;5034772;28;20045;-71
2023/04/25 11:53:35;;;;;;;10.18;1.88;;;12.30;90.60;;;;;;5034991;28;20037;-71
2023/04/25 11:56:01;;;;;;;6.63;1.60;;;12.10;89.20;;;;;;5036522;28;20044;-71
2023/04/25 11:58:27;;;;;;;7.20;1.00;;;11.90;88.50;;;;;;5022473;28;20508;-71
2023/04/25 12:00:53;;;;;;;10.52;1.80;;;11.70;87.70;;;;;;5022346;28;20501;-71
2023/04/25 12:03:19;;;;;;;5.40;1.10;;;11.40;88.60;;;;;;5038905;28;20041;-71
2023/04/25 12:05:45;;;;;;;4.22;1.10;;;11.20;88.20;;;;;;5038807;28;20428;-71
2023/04/25 12:08:13;;;;;;;4.95;1.20;;;11.20;89.40;;;;;;5038403;28;20131;-71
2023/04/25 12:10:40;;;;;;;6.97;1.65;;;11.50;89.60;;;;;;5038401;28;20037;-70
2023/04/25 12:13:23;;;;;;;7.55;1.30;;;11.60;88.90;;;;;;5038568;28;20550;-70
2023/04/25 12:15:49;;;;;;;12.23;1.73;;;11.80;87.50;;;;;;5038350;28;20049;-70
2023/04/25 12:18:19;;;;;;;10.05;1.40;;;11.60;87.10;;;;;;5022087;28;20044;-71
2023/04/25 12:20:44;;;;;;;8.38;1.33;;;11.40;88.30;;;;;;5038417;28;20047;-70
2023/04/25 12:23:13;;;;;;;6.70;1.50;;;11.30;89.20;;;;;;5038523;28;20489;-71
2023/04/25 12:25:43;;;;;;;8.30;1.70;;;11.30;90.20;;;;;;5038110;28;20077;-71
2023/04/25 12:28:15;;;;;;;7.05;1.55;;;11.40;89.30;;;;;;5038139;28;20049;-71
2023/04/25 12:31:01;;;;;;;9.85;1.42;;;11.30;88.60;;;;;;5038232;28;20101;-71
2023/04/25 12:33:35;;;;;;;10.95;1.25;;;11.10;89.40;;;;;;5038016;28;20037;-70
2023/04/25 12:36:08;;;;;;;9.57;1.50;;;10.80;90.60;;;;;;5037922;28;20047;-71
2023/04/25 12:38:40;;;;;;;4.97;1.13;;;10.40;90.60;;;;;;5038017;28;20033;-71
2023/04/25 12:41:05;;;;;;;5.93;1.42;;;10.20;91.00;;;;;;5037916;28;20286;-71
2023/04/25 12:43:31;;;;;;;5.72;1.13;;;10.00;91.10;;;;;;5037776;28;20049;-70
2023/04/25 12:45:57;;;;;;;6.50;1.45;;;10.00;91.10;;;;;;5037618;28;20064;-71
2023/04/25 12:48:23;;;;;;;8.05;1.30;;;10.30;91.10;;;;;;5037663;28;20120;-70
2023/04/25 12:50:51;;;;;;;9.95;1.40;;;10.60;91.20;;;;;;5037793;28;20110;-71
2023/04/25 12:53:18;;;;;;;9.52;1.63;;;10.70;90.70;;;;;;5037901;28;20037;-71
2023/04/25 12:55:47;;;;;;;8.68;1.65;;;10.90;91.10;;;;;;5037585;28;20076;-71
2023/04/25 12:58:13;;;;;;;10.70;2.33;;;11.10;91.30;;;;;;5037435;28;20167;-71
2023/04/25 13:00:39;;;;;;;7.72;1.50;;;11.10;90.30;;;;;;5037453;28;20045;-71
2023/04/25 13:03:05;;;;;;;6.05;1.20;;;11.00;87.80;;;;;;5037522;28;20037;-71
2023/04/25 13:05:31;;;;;;;9.35;1.55;;;10.90;88.80;;;;;;5037409;28;20110;-71
2023/04/25 13:07:57;;;;;;;8.38;1.42;;;10.90;88.10;;;;;;5036559;28;20043;-71
2023/04/25 13:10:22;;;;;;;5.50;1.13;;;11.10;87.80;;;;;;5037477;28;20045;-70
2023/04/25 13:12:48;;;;;;;6.30;1.10;;;11.20;86.70;;;;;;5037178;28;20409;-71
2023/04/25 13:15:15;;;;;;;8.05;1.58;;;11.60;87.00;;;;;;5037157;28;20139;-71
2023/04/25 13:17:41;;;;;;;7.85;1.70;;;11.90;85.90;;;;;;5037040;28;20497;-70
2023/04/25 13:20:09;;;;;;;8.60;1.25;;;12.30;86.00;;;;;;5037961;28;20045;-71
2023/04/25 13:22:41;;;;;;;8.63;1.40;;;12.50;84.20;;;;;;5037342;28;20053;-70
2023/04/25 13:25:07;;;;;;;6.70;1.35;;;12.70;81.80;;;;;;5037343;28;20041;-70
2023/04/25 13:27:36;;;;;;;10.38;1.50;;;12.90;83.50;;;;;;5036922;28;20080;-70
2023/04/25 13:30:07;;;;;;;6.07;1.52;;;13.10;82.00;;;;;;5036952;28;20075;-70
2023/04/25 13:32:36;;;;;;;7.15;1.08;;;13.30;81.70;;;;;;5036949;28;20554;-71
2023/04/25 13:35:04;;;;;;;7.75;1.45;;;13.30;81.70;;;;;;5036861;28;20124;-71
2023/04/25 13:37:32;;;;;;;6.32;1.30;;;13.30;81.00;;;;;;5036732;28;20041;-71
2023/04/25 13:40:02;;;;;;;6.05;1.20;;;13.30;81.70;;;;;;5036783;28;20047;-71
2023/04/25 13:42:29;;;;;;;5.85;1.23;;;13.10;80.90;;;;;;5037008;28;20048;-71